createdAt,value
2019-03-12T00:01:12.869Z,63.30
2019-03-12T00:03:40.419Z,62.70
2019-03-12T00:06:08.987Z,63.10
2019-03-12T00:08:36.491Z,63.70
2019-03-12T00:11:04.062Z,63.30
2019-03-12T00:13:31.580Z,63.70
2019-03-12T00:15:59.178Z,63.50
2019-03-12T00:18:28.402Z,63.80
2019-03-12T00:20:56.043Z,64.40
2019-03-12T00:23:23.750Z,64.00
2019-03-12T00:25:51.402Z,64.80
2019-03-12T00:28:18.946Z,65.50
2019-03-12T00:30:46.433Z,65.10
2019-03-12T00:33:14.268Z,65.70
2019-03-12T00:35:41.817Z,65.50
2019-03-12T00:38:09.817Z,66.30
2019-03-12T00:40:37.571Z,66.80
2019-03-12T00:43:05.369Z,67.20
2019-03-12T00:45:33.063Z,66.80
2019-03-12T00:48:00.588Z,66.60
2019-03-12T00:50:28.066Z,66.60
2019-03-12T00:52:57.140Z,67.20
2019-03-12T00:55:24.889Z,67.40
2019-03-12T00:57:52.414Z,68.50
2019-03-12T01:00:20.099Z,69.10
2019-03-12T01:02:47.793Z,69.20
2019-03-12T01:05:18.066Z,69.80
2019-03-12T01:07:46.334Z,70.40
2019-03-12T01:10:14.055Z,70.50
2019-03-12T01:12:41.570Z,71.10
2019-03-12T01:15:09.467Z,71.10
2019-03-12T01:17:37.117Z,71.50
2019-03-12T01:20:05.740Z,71.80
2019-03-12T01:22:33.381Z,71.80
2019-03-12T01:25:00.976Z,72.40
2019-03-12T01:27:29.710Z,73.00
2019-03-12T01:29:57.290Z,73.30
2019-03-12T01:32:24.815Z,73.70
2019-03-12T01:34:52.285Z,74.10
2019-03-12T01:37:19.722Z,74.10
2019-03-12T01:39:47.282Z,74.30
2019-03-12T01:42:14.806Z,74.50
2019-03-12T01:44:43.099Z,74.80
2019-03-12T01:47:10.966Z,74.30
2019-03-12T01:49:38.482Z,74.30
2019-03-12T01:52:06.086Z,73.90
2019-03-12T01:54:33.705Z,74.30
2019-03-12T01:57:01.197Z,74.50
2019-03-12T01:59:28.699Z,75.00
2019-03-12T02:01:56.198Z,75.40
2019-03-12T02:04:23.860Z,75.80
2019-03-12T02:06:51.354Z,76.10
2019-03-12T02:09:19.200Z,76.50
2019-03-12T02:11:46.714Z,76.70
2019-03-12T02:14:22.096Z,76.90
2019-03-12T02:16:49.686Z,76.30
2019-03-12T02:19:18.317Z,75.60
2019-03-12T02:21:45.872Z,75.00
2019-03-12T02:24:13.472Z,74.80
2019-03-12T02:26:40.985Z,73.90
2019-03-12T02:29:08.620Z,73.90
2019-03-12T02:31:36.196Z,73.70
2019-03-12T02:34:03.857Z,73.30
2019-03-12T02:36:31.502Z,73.20
2019-03-12T02:38:59.079Z,72.60
2019-03-12T02:41:26.551Z,72.60
2019-03-12T02:43:54.112Z,71.80
2019-03-12T02:46:21.632Z,71.80
2019-03-12T02:48:49.492Z,71.50
2019-03-12T02:51:17.121Z,71.50
2019-03-12T02:53:44.736Z,71.70
2019-03-12T02:56:12.350Z,71.70
2019-03-12T02:58:39.899Z,71.80
2019-03-12T03:01:07.486Z,71.80
2019-03-12T03:03:35.030Z,72.00
2019-03-12T03:06:15.274Z,71.80
2019-03-12T03:08:42.816Z,72.00
2019-03-12T03:11:10.548Z,71.50
2019-03-12T03:13:38.044Z,71.50
2019-03-12T03:16:05.576Z,71.10
2019-03-12T03:18:33.345Z,71.70
2019-03-12T03:21:00.943Z,71.70
2019-03-12T03:23:28.473Z,71.50
2019-03-12T03:25:55.958Z,71.80
2019-03-12T03:28:23.463Z,72.20
2019-03-12T03:30:51.302Z,72.80
2019-03-12T03:33:19.001Z,73.20
2019-03-12T03:35:46.642Z,73.30
2019-03-12T03:38:14.236Z,74.30
2019-03-12T03:40:41.909Z,74.80
2019-03-12T03:43:09.751Z,75.00
2019-03-12T03:45:37.403Z,75.90
2019-03-12T03:48:04.967Z,76.10
2019-03-12T03:50:32.687Z,75.90
2019-03-12T03:53:00.371Z,75.40
2019-03-12T03:55:27.869Z,75.00
2019-03-12T03:57:55.372Z,75.20
2019-03-12T04:00:22.895Z,75.40
2019-03-12T04:02:50.640Z,75.40
2019-03-12T04:05:18.442Z,75.00
2019-03-12T04:07:45.982Z,74.50
2019-03-12T04:10:14.556Z,74.10
2019-03-12T04:12:42.115Z,74.50
2019-03-12T04:15:10.150Z,74.30
2019-03-12T04:17:37.655Z,74.10
2019-03-12T04:20:05.238Z,74.30
2019-03-12T04:22:34.254Z,73.70
2019-03-12T04:25:01.805Z,74.60
2019-03-12T04:27:29.445Z,74.80
2019-03-12T04:29:57.094Z,75.20
2019-03-12T04:32:24.598Z,75.20
2019-03-12T04:34:52.131Z,75.20
2019-03-12T04:37:19.817Z,75.40
2019-03-12T04:39:47.331Z,75.20
2019-03-12T04:42:14.970Z,75.00
2019-03-12T04:44:45.361Z,75.40
2019-03-12T04:47:12.887Z,75.00
2019-03-12T04:49:40.402Z,75.40
2019-03-12T04:52:07.906Z,76.10
2019-03-12T04:54:35.416Z,76.70
2019-03-12T04:57:03.017Z,76.50
2019-03-12T04:59:30.450Z,76.50
2019-03-12T05:01:57.970Z,76.90
2019-03-12T05:04:25.412Z,76.90
2019-03-12T05:06:53.019Z,76.50
2019-03-12T05:09:21.747Z,76.30
2019-03-12T05:11:50.942Z,76.10
2019-03-12T05:14:31.492Z,75.80
2019-03-12T05:17:22.328Z,75.20
2019-03-12T05:19:49.912Z,75.00
2019-03-12T05:22:19.375Z,74.30
2019-03-12T05:24:46.817Z,74.10
2019-03-12T05:27:15.366Z,73.70
2019-03-12T05:29:44.010Z,74.10
2019-03-12T05:32:11.469Z,74.30
2019-03-12T05:34:38.933Z,74.30
2019-03-12T05:37:06.372Z,74.50
2019-03-12T05:39:33.839Z,74.60
2019-03-12T05:42:01.269Z,75.00
2019-03-12T05:44:28.949Z,75.60
2019-03-12T05:46:56.445Z,76.10
2019-03-12T05:49:23.899Z,76.10
2019-03-12T05:51:51.332Z,75.80
2019-03-12T05:54:18.809Z,75.60
2019-03-12T05:56:46.336Z,75.40
2019-03-12T05:59:13.906Z,75.80
2019-03-12T06:01:41.605Z,75.80
2019-03-12T06:04:09.060Z,75.80
2019-03-12T06:06:36.526Z,76.10
2019-03-12T06:09:05.991Z,75.80
2019-03-12T06:11:35.334Z,75.20
2019-03-12T06:14:03.345Z,73.90
2019-03-12T06:16:30.924Z,72.00
2019-03-12T06:18:58.338Z,69.40
2019-03-12T06:21:25.812Z,67.40
2019-03-12T06:23:53.270Z,65.30
2019-03-12T06:26:20.715Z,64.60
2019-03-12T06:28:48.129Z,62.90
2019-03-12T06:31:34.636Z,59.30
2019-03-12T06:34:09.051Z,56.60
2019-03-12T06:36:58.833Z,54.20
2019-03-12T06:39:51.763Z,53.90
2019-03-12T06:42:33.418Z,53.10
2019-03-12T06:45:09.540Z,51.70
2019-03-12T06:48:08.542Z,49.70
2019-03-12T06:51:01.287Z,47.60
2019-03-12T06:53:46.852Z,46.70
2019-03-12T06:56:26.749Z,44.40
2019-03-12T06:59:28.978Z,42.60
2019-03-12T07:02:15.663Z,38.80
2019-03-12T07:05:02.691Z,36.30
2019-03-12T07:07:57.133Z,35.30
2019-03-12T07:10:42.713Z,35.60
2019-03-12T07:13:29.657Z,38.50
2019-03-12T07:16:19.837Z,39.70
2019-03-12T07:19:22.172Z,41.50
2019-03-12T07:21:56.715Z,41.70
2019-03-12T07:24:58.775Z,40.00
2019-03-12T07:27:44.846Z,36.20
2019-03-12T07:30:24.643Z,30.60
2019-03-12T07:33:11.796Z,28.00
2019-03-12T07:35:55.733Z,27.20
2019-03-12T07:38:48.410Z,27.10
2019-03-12T07:41:44.589Z,24.60
2019-03-12T07:44:27.396Z,22.60
2019-03-12T07:47:12.962Z,23.70
2019-03-12T07:50:12.294Z,22.70
2019-03-12T07:52:59.281Z,21.60
2019-03-12T07:55:57.387Z,19.40
2019-03-12T07:59:04.476Z,19.30
2019-03-12T08:01:57.381Z,19.30
2019-03-12T08:04:56.154Z,19.80
2019-03-12T08:07:48.896Z,20.00
2019-03-12T08:10:21.450Z,20.50
2019-03-12T08:13:08.469Z,18.90
2019-03-12T08:16:10.900Z,19.10
2019-03-12T08:19:02.983Z,21.50
2019-03-12T08:21:53.257Z,20.80
2019-03-12T08:24:28.703Z,19.90
2019-03-12T08:27:08.848Z,19.20
2019-03-12T08:29:58.616Z,19.10
2019-03-12T08:32:44.200Z,19.50
2019-03-12T08:35:35.580Z,20.50
2019-03-12T08:38:12.169Z,19.80
2019-03-12T08:40:52.647Z,20.40
2019-03-12T08:43:47.953Z,19.30
2019-03-12T08:46:41.207Z,19.20
2019-03-12T08:49:26.864Z,18.60
2019-03-12T08:52:26.154Z,19.70
2019-03-12T08:55:13.543Z,20.30
2019-03-12T08:58:21.124Z,20.30
2019-03-12T09:01:19.238Z,18.80
2019-03-12T09:04:36.045Z,19.30
2019-03-12T09:07:23.620Z,18.00
2019-03-12T09:10:00.724Z,16.60
2019-03-12T09:13:06.153Z,16.50
2019-03-12T09:15:59.306Z,16.30
2019-03-12T09:18:37.247Z,15.40
2019-03-12T09:21:29.604Z,13.80
2019-03-12T09:24:28.637Z,15.10
2019-03-12T09:27:18.565Z,14.90
2019-03-12T09:30:04.240Z,16.70
2019-03-12T09:33:00.484Z,16.90
2019-03-12T09:35:53.317Z,15.80
2019-03-12T09:38:40.401Z,15.30
2019-03-12T09:41:26.310Z,16.10
2019-03-12T09:43:59.737Z,17.50
2019-03-12T09:46:34.363Z,17.10
2019-03-12T09:49:12.073Z,16.40
2019-03-12T09:52:08.349Z,17.50
2019-03-12T09:54:44.238Z,18.20
2019-03-12T09:57:31.255Z,18.30
2019-03-12T10:00:18.151Z,18.40
2019-03-12T10:03:06.286Z,16.50
2019-03-12T10:05:53.427Z,16.40
2019-03-12T10:08:49.566Z,15.70
2019-03-12T10:11:39.626Z,15.30
2019-03-12T10:14:35.172Z,14.70
2019-03-12T10:17:15.695Z,13.60
2019-03-12T10:20:10.230Z,13.70
2019-03-12T10:22:55.558Z,14.70
2019-03-12T10:25:37.595Z,13.60
2019-03-12T10:28:23.639Z,13.10
2019-03-12T10:31:13.647Z,13.40
2019-03-12T10:33:59.518Z,12.30
2019-03-12T10:36:52.716Z,11.50
2019-03-12T10:40:02.355Z,11.40
2019-03-12T10:42:37.610Z,10.20
2019-03-12T10:45:17.869Z,11.00
2019-03-12T10:47:46.128Z,10.90
2019-03-12T10:50:13.792Z,12.20
2019-03-12T10:52:41.234Z,10.80
2019-03-12T10:55:13.639Z,11.00
2019-03-12T10:57:38.130Z,10.40
2019-03-12T11:00:05.974Z,10.60
2019-03-12T11:02:35.383Z,11.50
2019-03-12T11:05:03.689Z,10.30
2019-03-12T11:07:31.393Z,9.40
2019-03-12T11:09:58.962Z,9.00
2019-03-12T11:12:26.384Z,9.40
2019-03-12T11:14:54.021Z,10.50
2019-03-12T11:17:22.031Z,9.60
2019-03-12T11:19:49.642Z,9.70
2019-03-12T11:22:17.284Z,10.50
2019-03-12T11:24:44.786Z,9.90
2019-03-12T11:27:12.281Z,10.20
2019-03-12T11:29:39.865Z,10.30
2019-03-12T11:32:07.425Z,10.00
2019-03-12T11:34:38.301Z,8.90
2019-03-12T11:37:05.632Z,7.60
2019-03-12T11:39:33.166Z,7.70
2019-03-12T11:42:00.801Z,7.30
2019-03-12T11:44:28.389Z,7.40
2019-03-12T11:46:56.032Z,9.20
2019-03-12T11:49:23.490Z,8.50
2019-03-12T11:51:51.030Z,7.10
2019-03-12T11:54:18.523Z,7.70
2019-03-12T11:56:46.161Z,8.40
2019-03-12T11:59:14.038Z,8.60
2019-03-12T12:01:41.569Z,8.80
2019-03-12T12:04:09.259Z,7.90
2019-03-12T12:06:42.259Z,6.50
2019-03-12T12:09:07.016Z,6.80
2019-03-12T12:11:36.981Z,6.60
2019-03-12T12:14:04.393Z,7.00
2019-03-12T12:16:32.117Z,7.70
2019-03-12T12:18:59.736Z,8.90
2019-03-12T12:21:27.215Z,8.20
2019-03-12T12:23:54.779Z,9.20
2019-03-12T12:26:22.264Z,10.20
2019-03-12T12:28:49.786Z,11.30
2019-03-12T12:31:17.253Z,12.00
2019-03-12T12:33:44.809Z,10.70
2019-03-12T12:36:13.480Z,9.00
2019-03-12T12:38:40.997Z,8.80
2019-03-12T12:41:08.504Z,8.50
2019-03-12T12:43:35.947Z,8.10
2019-03-12T12:46:04.528Z,7.50
2019-03-12T12:48:32.123Z,9.10
2019-03-12T12:51:03.481Z,9.70
2019-03-12T12:53:29.403Z,9.50
2019-03-12T12:55:57.273Z,9.80
2019-03-12T12:58:24.796Z,10.10
2019-03-12T13:00:52.318Z,8.60
2019-03-12T13:03:19.815Z,9.40
2019-03-12T13:05:47.270Z,8.50
2019-03-12T13:08:14.860Z,9.80
2019-03-12T13:10:42.679Z,9.60
2019-03-12T13:13:10.325Z,10.50
2019-03-12T13:15:37.821Z,10.50
2019-03-12T13:18:05.349Z,11.80
2019-03-12T13:20:32.917Z,11.70
2019-03-12T13:23:00.367Z,11.60
2019-03-12T13:25:28.978Z,12.30
2019-03-12T13:27:56.559Z,11.70
2019-03-12T13:30:24.197Z,11.20
2019-03-12T13:32:51.657Z,10.90
2019-03-12T13:35:19.586Z,11.30
2019-03-12T13:37:47.603Z,11.40
2019-03-12T13:40:15.609Z,11.60
2019-03-12T13:42:43.254Z,11.30
2019-03-12T13:45:12.395Z,10.60
2019-03-12T13:47:41.217Z,11.50
2019-03-12T13:50:09.184Z,13.40
2019-03-12T13:52:36.877Z,14.50
2019-03-12T13:55:05.054Z,15.40
2019-03-12T13:57:32.576Z,15.90
2019-03-12T14:00:00.036Z,16.20
2019-03-12T14:02:27.634Z,16.40
2019-03-12T14:04:55.216Z,16.60
2019-03-12T14:07:23.030Z,17.30
2019-03-12T14:09:50.507Z,18.00
2019-03-12T14:12:42.095Z,18.80
2019-03-12T14:15:20.157Z,17.90
2019-03-12T14:17:47.640Z,18.90
2019-03-12T14:20:38.382Z,19.10
2019-03-12T14:23:06.352Z,19.50
2019-03-12T14:25:33.883Z,19.20
2019-03-12T14:28:01.523Z,19.10
2019-03-12T14:30:29.666Z,19.40
2019-03-12T14:32:58.296Z,19.40
2019-03-12T14:35:25.871Z,19.10
2019-03-12T14:37:53.351Z,19.50
2019-03-12T14:40:21.895Z,18.90
2019-03-12T14:42:49.643Z,19.40
2019-03-12T14:45:24.216Z,18.90
2019-03-12T14:47:51.747Z,19.40
2019-03-12T14:50:19.256Z,18.80
2019-03-12T14:52:48.685Z,18.40
2019-03-12T14:55:16.157Z,18.60
2019-03-12T14:57:43.882Z,18.30
2019-03-12T15:00:21.021Z,17.70
2019-03-12T15:02:48.633Z,17.50
2019-03-12T15:05:16.145Z,16.90
2019-03-12T15:07:43.712Z,16.70
2019-03-12T15:10:13.592Z,16.20
2019-03-12T15:12:41.162Z,15.70
2019-03-12T15:15:08.670Z,15.30
2019-03-12T15:17:36.284Z,15.40
2019-03-12T15:20:04.061Z,15.60
2019-03-12T15:22:31.770Z,15.90
2019-03-12T15:24:59.454Z,15.60
2019-03-12T15:27:26.996Z,16.50
2019-03-12T15:29:54.581Z,16.80
2019-03-12T15:32:22.029Z,17.30
2019-03-12T15:34:49.656Z,16.10
2019-03-12T15:37:17.151Z,16.60
2019-03-12T15:39:44.843Z,16.90
2019-03-12T15:42:12.278Z,16.50
2019-03-12T15:44:39.950Z,16.80
2019-03-12T15:47:08.863Z,17.10
2019-03-12T15:49:37.905Z,16.70
2019-03-12T15:52:07.754Z,16.90
2019-03-12T15:54:36.400Z,17.00
2019-03-12T15:57:03.933Z,17.40
2019-03-12T15:59:31.575Z,17.40
2019-03-12T16:01:59.280Z,17.40
2019-03-12T16:04:26.726Z,17.30
2019-03-12T16:07:01.344Z,17.60
2019-03-12T16:09:23.673Z,17.40
2019-03-12T16:11:51.168Z,18.20
2019-03-12T16:14:18.674Z,18.30
2019-03-12T16:16:46.254Z,18.80
2019-03-12T16:19:14.372Z,19.00
2019-03-12T16:21:41.994Z,19.60
2019-03-12T16:24:09.487Z,19.60
2019-03-12T16:26:37.030Z,19.50
2019-03-12T16:29:04.559Z,20.20
2019-03-12T16:31:32.169Z,20.10
2019-03-12T16:33:59.724Z,20.30
2019-03-12T16:36:27.499Z,20.80
2019-03-12T16:38:55.000Z,20.60
2019-03-12T16:41:22.591Z,20.50
2019-03-12T16:43:50.266Z,20.90
2019-03-12T16:46:17.732Z,21.30
2019-03-12T16:48:45.230Z,20.60
2019-03-12T16:51:13.087Z,21.10
2019-03-12T16:53:40.820Z,21.40
2019-03-12T16:56:13.853Z,21.40
2019-03-12T16:58:41.433Z,21.80
2019-03-12T17:01:09.059Z,22.00
2019-03-12T17:03:36.539Z,23.00
2019-03-12T17:06:04.065Z,22.60
2019-03-12T17:08:31.618Z,22.90
2019-03-12T17:11:02.610Z,22.80
2019-03-12T17:13:28.858Z,23.00
2019-03-12T17:15:56.316Z,23.80
2019-03-12T17:18:30.570Z,24.40
2019-03-12T17:20:58.679Z,24.70
2019-03-12T17:23:26.238Z,24.70
2019-03-12T17:25:53.939Z,24.70
2019-03-12T17:28:21.534Z,25.10
2019-03-12T17:30:49.200Z,25.40
2019-03-12T17:33:16.715Z,25.60
2019-03-12T17:35:44.340Z,26.00
2019-03-12T17:38:11.926Z,26.40
2019-03-12T17:40:39.466Z,26.70
2019-03-12T17:43:07.006Z,26.70
2019-03-12T17:45:34.772Z,26.90
2019-03-12T17:48:02.384Z,27.00
2019-03-12T17:50:31.061Z,27.50
2019-03-12T17:52:58.528Z,27.50
2019-03-12T17:55:26.104Z,27.50
2019-03-12T17:57:53.545Z,27.60
2019-03-12T18:00:22.512Z,27.60
2019-03-12T18:02:50.069Z,27.80
2019-03-12T18:05:17.561Z,27.60
2019-03-12T18:07:45.857Z,28.10
2019-03-12T18:10:13.310Z,28.10
2019-03-12T18:12:40.821Z,27.90
2019-03-12T18:15:10.807Z,28.10
2019-03-12T18:17:38.428Z,28.70
2019-03-12T18:20:07.982Z,28.60
2019-03-12T18:22:38.850Z,28.50
2019-03-12T18:25:07.507Z,28.80
2019-03-12T18:27:35.094Z,28.40
2019-03-12T18:30:02.586Z,28.20
2019-03-12T18:32:31.728Z,28.40
2019-03-12T18:34:59.327Z,28.20
2019-03-12T18:37:26.941Z,28.10
2019-03-12T18:39:54.479Z,28.30
2019-03-12T18:42:22.099Z,27.90
2019-03-12T18:44:49.538Z,28.30
2019-03-12T18:47:19.239Z,27.90
2019-03-12T18:49:46.698Z,28.20
2019-03-12T18:52:14.204Z,28.20
2019-03-12T18:54:41.654Z,27.60
2019-03-12T18:57:28.963Z,26.10
2019-03-12T18:59:58.662Z,26.70
2019-03-12T19:02:26.208Z,25.80
2019-03-12T19:04:53.686Z,26.60
2019-03-12T19:07:21.163Z,26.90
2019-03-12T19:09:48.672Z,28.70
2019-03-12T19:12:16.192Z,29.40
2019-03-12T19:14:43.688Z,29.30
2019-03-12T19:17:11.111Z,29.20
2019-03-12T19:19:38.676Z,28.90
2019-03-12T19:22:06.272Z,28.50
2019-03-12T19:24:33.818Z,28.80
2019-03-12T19:27:01.281Z,29.40
2019-03-12T19:29:28.806Z,29.00
2019-03-12T19:32:14.374Z,29.20
2019-03-12T19:34:41.893Z,29.20
2019-03-12T19:37:09.336Z,29.10
2019-03-12T19:39:37.005Z,28.70
2019-03-12T19:42:05.594Z,28.70
2019-03-12T19:44:33.048Z,29.00
2019-03-12T19:47:00.470Z,28.00
2019-03-12T19:49:27.960Z,27.50
2019-03-12T19:51:55.425Z,26.10
2019-03-12T19:54:23.054Z,26.40
2019-03-12T19:56:51.516Z,25.80
2019-03-12T19:59:18.922Z,25.60
2019-03-12T20:01:47.534Z,25.10
2019-03-12T20:04:15.015Z,24.00
2019-03-12T20:06:42.765Z,24.50
2019-03-12T20:09:13.435Z,24.30
2019-03-12T20:12:19.477Z,23.70
2019-03-12T20:15:32.273Z,23.90
2019-03-12T20:18:50.294Z,23.80
2019-03-12T20:21:49.722Z,23.20
2019-03-12T20:24:57.196Z,24.10
2019-03-12T20:28:02.722Z,22.80
2019-03-12T20:30:52.373Z,22.50
2019-03-12T20:34:14.284Z,22.40
2019-03-12T20:37:18.605Z,22.50
2019-03-12T20:40:32.565Z,22.20
2019-03-12T20:43:37.734Z,22.30
2019-03-12T20:46:50.347Z,22.20
2019-03-12T20:49:54.371Z,21.80
2019-03-12T20:53:12.413Z,21.70
2019-03-12T20:56:33.811Z,21.70
2019-03-12T20:59:43.021Z,21.60
2019-03-12T21:03:03.545Z,21.00
2019-03-12T21:06:14.375Z,21.30
2019-03-12T21:09:19.852Z,21.50
2019-03-12T21:12:27.913Z,21.00
2019-03-12T21:15:34.378Z,21.00
2019-03-12T21:18:45.181Z,21.20
2019-03-12T21:22:04.314Z,20.80
2019-03-12T21:25:29.865Z,20.80
2019-03-12T21:28:41.619Z,21.10
2019-03-12T21:31:09.367Z,21.10
2019-03-12T21:33:36.918Z,20.90
2019-03-12T21:36:07.945Z,20.10
2019-03-12T21:38:34.278Z,20.10
2019-03-12T21:41:04.785Z,19.60
2019-03-12T21:43:32.247Z,19.90
2019-03-12T21:45:59.764Z,19.40
2019-03-12T21:48:27.309Z,19.60
2019-03-12T21:50:55.031Z,19.90
2019-03-12T21:53:22.487Z,19.40
2019-03-12T21:55:50.037Z,19.80
2019-03-12T21:58:17.736Z,20.10
2019-03-12T22:00:46.358Z,20.30
2019-03-12T22:03:16.373Z,20.30
2019-03-12T22:05:43.282Z,20.40
2019-03-12T22:08:10.761Z,20.60
2019-03-12T22:10:38.258Z,20.70
2019-03-12T22:13:07.109Z,20.80
2019-03-12T22:15:34.543Z,20.80
2019-03-12T22:18:02.105Z,20.80
2019-03-12T22:20:29.583Z,20.70
2019-03-12T22:23:02.120Z,20.50
2019-03-12T22:25:29.710Z,20.20
2019-03-12T22:27:57.197Z,20.60
2019-03-12T22:30:25.665Z,20.60
2019-03-12T22:32:53.348Z,20.70
2019-03-12T22:35:20.799Z,21.00
2019-03-12T22:37:48.544Z,20.90
2019-03-12T22:40:16.015Z,21.30
2019-03-12T22:42:43.491Z,21.40
2019-03-12T22:45:11.167Z,21.80
2019-03-12T22:47:38.854Z,21.80
2019-03-12T22:50:07.078Z,22.00
2019-03-12T22:52:34.565Z,22.20
2019-03-12T22:55:03.878Z,22.50
2019-03-12T22:57:31.424Z,22.90
2019-03-12T23:03:14.653Z,23.70
2019-03-12T23:06:00.810Z,24.20
2019-03-12T23:08:46.790Z,24.40
2019-03-12T23:11:16.239Z,24.60
2019-03-12T23:13:44.312Z,24.90
2019-03-12T23:16:12.547Z,25.30
2019-03-12T23:18:40.140Z,25.50
2019-03-12T23:21:07.865Z,25.90
2019-03-12T23:23:36.482Z,26.50
2019-03-12T23:26:04.141Z,26.80
2019-03-12T23:28:31.923Z,26.80
2019-03-12T23:30:59.726Z,26.70
2019-03-12T23:33:27.295Z,26.60
2019-03-12T23:35:54.939Z,26.90
2019-03-12T23:38:23.774Z,27.10
2019-03-12T23:40:51.419Z,27.30
2019-03-12T23:43:18.970Z,27.60
2019-03-12T23:45:46.413Z,28.00
2019-03-12T23:48:13.935Z,30.40
2019-03-12T23:50:41.446Z,33.60
2019-03-12T23:53:09.055Z,35.60
2019-03-12T23:55:36.593Z,36.80
2019-03-12T23:58:04.164Z,37.60
